sensor_id;sensor_type;location;lat;lon;timestamp;pressure;altitude;pressure_sealevel;temperature;humidity
12664;BME280;6396;58.490;15.528;2022-10-31T00:02:02;100777.56;;;7.76;100.00
12664;BME280;6396;58.490;15.528;2022-10-31T00:04:29;100673.00;;;7.32;100.00
12664;BME280;6396;58.490;15.528;2022-10-31T00:06:56;101011.75;;;9.11;100.00
12664;BME280;6396;58.490;15.528;2022-10-31T00:09:22;100941.25;;;8.64;100.00
12664;BME280;6396;58.490;15.528;2022-10-31T00:11:49;101036.22;;;9.18;100.00
12664;BME280;6396;58.490;15.528;2022-10-31T00:14:17;101070.53;;;9.15;100.00
12664;BME280;6396;58.490;15.528;2022-10-31T00:16:44;100961.09;;;8.91;100.00
12664;BME280;6396;58.490;15.528;2022-10-31T00:19:11;100687.94;;;7.24;100.00
12664;BME280;6396;58.490;15.528;2022-10-31T00:21:38;100844.41;;;8.27;100.00
12664;BME280;6396;58.490;15.528;2022-10-31T00:24:05;100743.44;;;7.73;100.00
12664;BME280;6396;58.490;15.528;2022-10-31T00:26:32;100695.81;;;7.29;100.00
12664;BME280;6396;58.490;15.528;2022-10-31T00:28:59;101010.56;;;9.32;100.00
12664;BME280;6396;58.490;15.528;2022-10-31T00:31:28;101018.44;;;9.33;100.00
12664;BME280;6396;58.490;15.528;2022-10-31T00:33:55;100965.53;;;8.87;100.00
12664;BME280;6396;58.490;15.528;2022-10-31T00:36:21;100840.09;;;8.20;100.00
12664;BME280;6396;58.490;15.528;2022-10-31T00:38:48;100910.47;;;8.71;100.00
12664;BME280;6396;58.490;15.528;2022-10-31T00:41:17;101005.53;;;9.17;100.00
12664;BME280;6396;58.490;15.528;2022-10-31T00:43:44;101017.63;;;9.28;100.00
12664;BME280;6396;58.490;15.528;2022-10-31T00:46:12;101018.50;;;9.27;100.00
12664;BME280;6396;58.490;15.528;2022-10-31T00:48:40;101017.72;;;9.24;100.00
12664;BME280;6396;58.490;15.528;2022-10-31T00:51:07;101019.50;;;9.22;100.00
12664;BME280;6396;58.490;15.528;2022-10-31T00:53:34;101021.31;;;9.17;100.00
12664;BME280;6396;58.490;15.528;2022-10-31T00:56:01;100903.03;;;8.36;100.00
12664;BME280;6396;58.490;15.528;2022-10-31T00:58:28;100949.03;;;8.73;100.00
12664;BME280;6396;58.490;15.528;2022-10-31T01:00:55;101022.94;;;9.27;100.00
12664;BME280;6396;58.490;15.528;2022-10-31T01:03:22;101009.94;;;9.15;100.00
12664;BME280;6396;58.490;15.528;2022-10-31T01:05:58;101020.13;;;9.39;100.00
12664;BME280;6396;58.490;15.528;2022-10-31T01:08:26;101020.97;;;9.41;100.00
12664;BME280;6396;58.490;15.528;2022-10-31T01:11:01;100956.38;;;9.13;100.00
12664;BME280;6396;58.490;15.528;2022-10-31T01:13:28;100825.13;;;8.26;100.00
12664;BME280;6396;58.490;15.528;2022-10-31T01:15:55;101031.47;;;9.42;100.00
12664;BME280;6396;58.490;15.528;2022-10-31T01:18:23;101041.25;;;9.34;100.00
12664;BME280;6396;58.490;15.528;2022-10-31T01:20:59;101009.69;;;9.31;100.00
12664;BME280;6396;58.490;15.528;2022-10-31T01:23:26;101021.16;;;9.29;100.00
12664;BME280;6396;58.490;15.528;2022-10-31T01:26:03;101026.31;;;9.35;100.00
12664;BME280;6396;58.490;15.528;2022-10-31T01:28:30;101013.06;;;9.41;100.00
12664;BME280;6396;58.490;15.528;2022-10-31T01:31:00;101015.59;;;9.47;100.00
12664;BME280;6396;58.490;15.528;2022-10-31T01:33:27;100953.00;;;9.06;100.00
12664;BME280;6396;58.490;15.528;2022-10-31T01:35:54;101012.22;;;9.39;100.00
12664;BME280;6396;58.490;15.528;2022-10-31T01:38:22;100978.19;;;9.22;100.00
12664;BME280;6396;58.490;15.528;2022-10-31T01:40:49;101014.75;;;9.43;100.00
12664;BME280;6396;58.490;15.528;2022-10-31T01:43:16;100572.28;;;6.68;100.00
12664;BME280;6396;58.490;15.528;2022-10-31T01:45:46;101013.91;;;9.43;100.00
12664;BME280;6396;58.490;15.528;2022-10-31T01:48:15;100762.34;;;7.99;100.00
12664;BME280;6396;58.490;15.528;2022-10-31T01:50:44;101002.16;;;9.63;100.00
12664;BME280;6396;58.490;15.528;2022-10-31T01:53:15;101006.66;;;9.57;100.00
12664;BME280;6396;58.490;15.528;2022-10-31T01:55:44;101002.31;;;9.53;100.00
12664;BME280;6396;58.490;15.528;2022-10-31T01:58:18;100739.50;;;8.04;100.00
12664;BME280;6396;58.490;15.528;2022-10-31T02:00:48;101000.41;;;9.62;100.00
12664;BME280;6396;58.490;15.528;2022-10-31T02:03:17;100863.75;;;8.83;100.00
12664;BME280;6396;58.490;15.528;2022-10-31T02:05:45;100941.19;;;9.30;100.00
12664;BME280;6396;58.490;15.528;2022-10-31T02:08:16;100833.44;;;8.58;100.00
12664;BME280;6396;58.490;15.528;2022-10-31T02:10:46;100993.41;;;9.61;100.00
12664;BME280;6396;58.490;15.528;2022-10-31T02:13:13;100995.03;;;9.68;100.00
12664;BME280;6396;58.490;15.528;2022-10-31T02:15:42;100883.75;;;8.96;100.00
12664;BME280;6396;58.490;15.528;2022-10-31T02:18:11;100998.59;;;9.64;100.00
12664;BME280;6396;58.490;15.528;2022-10-31T02:20:42;101006.47;;;9.69;100.00
12664;BME280;6396;58.490;15.528;2022-10-31T02:23:33;100907.22;;;9.12;100.00
12664;BME280;6396;58.490;15.528;2022-10-31T02:26:26;100997.50;;;9.79;100.00
12664;BME280;6396;58.490;15.528;2022-10-31T02:32:05;100997.69;;;9.67;100.00
12664;BME280;6396;58.490;15.528;2022-10-31T02:34:37;100719.34;;;8.03;100.00
12664;BME280;6396;58.490;15.528;2022-10-31T02:37:12;100992.38;;;9.70;100.00
12664;BME280;6396;58.490;15.528;2022-10-31T02:39:47;100935.81;;;9.37;100.00
12664;BME280;6396;58.490;15.528;2022-10-31T02:42:25;101003.72;;;9.75;100.00
12664;BME280;6396;58.490;15.528;2022-10-31T02:45:02;101000.97;;;9.81;100.00
12664;BME280;6396;58.490;15.528;2022-10-31T02:47:36;101053.72;;;9.81;100.00
12664;BME280;6396;58.490;15.528;2022-10-31T02:50:07;100998.22;;;9.87;100.00
12664;BME280;6396;58.490;15.528;2022-10-31T02:52:35;100993.81;;;9.87;100.00
12664;BME280;6396;58.490;15.528;2022-10-31T02:55:10;101017.47;;;9.93;100.00
12664;BME280;6396;58.490;15.528;2022-10-31T02:57:38;100965.13;;;9.69;100.00
12664;BME280;6396;58.490;15.528;2022-10-31T03:00:08;100953.72;;;9.69;100.00
12664;BME280;6396;58.490;15.528;2022-10-31T03:02:54;100992.00;;;9.91;100.00
12664;BME280;6396;58.490;15.528;2022-10-31T03:05:43;100936.22;;;9.65;100.00
12664;BME280;6396;58.490;15.528;2022-10-31T03:08:18;100989.25;;;9.98;100.00
12664;BME280;6396;58.490;15.528;2022-10-31T03:10:53;100563.28;;;7.54;100.00
12664;BME280;6396;58.490;15.528;2022-10-31T03:13:26;100992.56;;;10.11;100.00
12664;BME280;6396;58.490;15.528;2022-10-31T03:16:05;100991.72;;;10.09;100.00
12664;BME280;6396;58.490;15.528;2022-10-31T03:18:37;100994.38;;;10.09;100.00
12664;BME280;6396;58.490;15.528;2022-10-31T03:21:08;101025.13;;;10.10;100.00
12664;BME280;6396;58.490;15.528;2022-10-31T03:23:37;100933.31;;;9.78;100.00
12664;BME280;6396;58.490;15.528;2022-10-31T03:26:07;100929.03;;;9.73;100.00
12664;BME280;6396;58.490;15.528;2022-10-31T03:28:38;100987.34;;;10.05;100.00
12664;BME280;6396;58.490;15.528;2022-10-31T03:31:07;100980.31;;;10.05;100.00
12664;BME280;6396;58.490;15.528;2022-10-31T03:33:39;100979.38;;;10.08;100.00
12664;BME280;6396;58.490;15.528;2022-10-31T03:36:11;100931.41;;;9.88;100.00
12664;BME280;6396;58.490;15.528;2022-10-31T03:38:41;100788.84;;;9.04;100.00
12664;BME280;6396;58.490;15.528;2022-10-31T03:41:13;100870.59;;;9.48;100.00
12664;BME280;6396;58.490;15.528;2022-10-31T03:43:46;100988.06;;;10.16;100.00
12664;BME280;6396;58.490;15.528;2022-10-31T03:46:14;100981.09;;;10.12;100.00
12664;BME280;6396;58.490;15.528;2022-10-31T03:48:43;100984.66;;;10.11;100.00
12664;BME280;6396;58.490;15.528;2022-10-31T03:51:15;100840.22;;;9.28;100.00
12664;BME280;6396;58.490;15.528;2022-10-31T03:53:51;100981.09;;;10.12;100.00
12664;BME280;6396;58.490;15.528;2022-10-31T03:56:23;100982.06;;;10.06;100.00
12664;BME280;6396;58.490;15.528;2022-10-31T03:58:57;100855.06;;;9.33;100.00
12664;BME280;6396;58.490;15.528;2022-10-31T04:01:26;100967.16;;;10.02;100.00
12664;BME280;6396;58.490;15.528;2022-10-31T04:03:57;101098.91;;;10.16;100.00
12664;BME280;6396;58.490;15.528;2022-10-31T04:06:25;100993.34;;;10.16;100.00
12664;BME280;6396;58.490;15.528;2022-10-31T04:08:56;100985.47;;;10.15;100.00
12664;BME280;6396;58.490;15.528;2022-10-31T04:11:28;100875.09;;;9.42;100.00
12664;BME280;6396;58.490;15.528;2022-10-31T04:13:56;100996.69;;;10.26;100.00
12664;BME280;6396;58.490;15.528;2022-10-31T04:16:26;100758.44;;;8.83;100.00
12664;BME280;6396;58.490;15.528;2022-10-31T04:18:53;100949.53;;;10.04;100.00
12664;BME280;6396;58.490;15.528;2022-10-31T04:21:26;101005.31;;;10.35;100.00
12664;BME280;6396;58.490;15.528;2022-10-31T04:23:54;100989.47;;;10.35;100.00
12664;BME280;6396;58.490;15.528;2022-10-31T04:26:21;100994.78;;;10.32;100.00
12664;BME280;6396;58.490;15.528;2022-10-31T04:28:48;101004.56;;;10.29;100.00
12664;BME280;6396;58.490;15.528;2022-10-31T04:31:15;101010.69;;;10.29;100.00
12664;BME280;6396;58.490;15.528;2022-10-31T04:33:42;100949.47;;;10.10;100.00
12664;BME280;6396;58.490;15.528;2022-10-31T04:36:08;100955.63;;;10.08;100.00
12664;BME280;6396;58.490;15.528;2022-10-31T04:38:37;101009.59;;;10.39;100.00
12664;BME280;6396;58.490;15.528;2022-10-31T04:41:04;100786.72;;;9.24;100.00
12664;BME280;6396;58.490;15.528;2022-10-31T04:43:31;100985.81;;;10.42;100.00
12664;BME280;6396;58.490;15.528;2022-10-31T04:45:57;100983.22;;;10.41;100.00
12664;BME280;6396;58.490;15.528;2022-10-31T04:48:24;101016.53;;;10.45;100.00
12664;BME280;6396;58.490;15.528;2022-10-31T04:50:51;100992.75;;;10.46;100.00
12664;BME280;6396;58.490;15.528;2022-10-31T04:53:18;100937.09;;;10.14;100.00
12664;BME280;6396;58.490;15.528;2022-10-31T04:55:46;100805.03;;;9.32;100.00
12664;BME280;6396;58.490;15.528;2022-10-31T04:58:12;100981.38;;;10.44;100.00
12664;BME280;6396;58.490;15.528;2022-10-31T05:00:39;100768.72;;;9.00;100.00
12664;BME280;6396;58.490;15.528;2022-10-31T05:03:06;100951.16;;;10.13;100.00
12664;BME280;6396;58.490;15.528;2022-10-31T05:05:33;100981.44;;;10.40;100.00
12664;BME280;6396;58.490;15.528;2022-10-31T05:07:59;100984.94;;;10.42;100.00
12664;BME280;6396;58.490;15.528;2022-10-31T05:10:28;101006.09;;;10.40;100.00
12664;BME280;6396;58.490;15.528;2022-10-31T05:12:58;100930.94;;;10.13;100.00
12664;BME280;6396;58.490;15.528;2022-10-31T05:15:26;100975.19;;;10.45;100.00
12664;BME280;6396;58.490;15.528;2022-10-31T05:17:53;100973.38;;;10.47;100.00
12664;BME280;6396;58.490;15.528;2022-10-31T05:20:23;100978.94;;;10.32;100.00
12664;BME280;6396;58.490;15.528;2022-10-31T05:22:52;100996.16;;;10.53;100.00
12664;BME280;6396;58.490;15.528;2022-10-31T05:25:21;101011.97;;;10.54;100.00
12664;BME280;6396;58.490;15.528;2022-10-31T05:27:50;100954.38;;;10.30;100.00
12664;BME280;6396;58.490;15.528;2022-10-31T05:30:21;100988.38;;;10.45;100.00
12664;BME280;6396;58.490;15.528;2022-10-31T05:32:49;100892.69;;;9.90;100.00
12664;BME280;6396;58.490;15.528;2022-10-31T05:35:18;101013.66;;;10.58;100.00
12664;BME280;6396;58.490;15.528;2022-10-31T05:37:45;100888.13;;;9.98;100.00
12664;BME280;6396;58.490;15.528;2022-10-31T05:40:13;101008.31;;;10.61;100.00
12664;BME280;6396;58.490;15.528;2022-10-31T05:42:40;100841.94;;;9.77;100.00
12664;BME280;6396;58.490;15.528;2022-10-31T05:45:08;100954.25;;;10.36;100.00
12664;BME280;6396;58.490;15.528;2022-10-31T05:47:37;100976.53;;;10.64;100.00
12664;BME280;6396;58.490;15.528;2022-10-31T05:50:05;100980.09;;;10.63;100.00
12664;BME280;6396;58.490;15.528;2022-10-31T05:52:32;100985.22;;;10.71;100.00
12664;BME280;6396;58.490;15.528;2022-10-31T05:54:59;100897.56;;;10.13;100.00
12664;BME280;6396;58.490;15.528;2022-10-31T05:57:26;100976.38;;;10.73;100.00
12664;BME280;6396;58.490;15.528;2022-10-31T05:59:54;100947.06;;;10.43;100.00
12664;BME280;6396;58.490;15.528;2022-10-31T06:02:21;100933.81;;;10.46;100.00
12664;BME280;6396;58.490;15.528;2022-10-31T06:04:49;100986.81;;;10.79;100.00
12664;BME280;6396;58.490;15.528;2022-10-31T06:07:16;100891.91;;;10.29;100.00
12664;BME280;6396;58.490;15.528;2022-10-31T06:09:43;100970.88;;;10.82;100.00
12664;BME280;6396;58.490;15.528;2022-10-31T06:12:09;100940.41;;;10.66;100.00
12664;BME280;6396;58.490;15.528;2022-10-31T06:14:36;100956.69;;;10.86;100.00
12664;BME280;6396;58.490;15.528;2022-10-31T06:17:03;100926.56;;;10.55;100.00
12664;BME280;6396;58.490;15.528;2022-10-31T06:19:29;100977.78;;;10.89;100.00
12664;BME280;6396;58.490;15.528;2022-10-31T06:21:58;100990.00;;;10.95;100.00
12664;BME280;6396;58.490;15.528;2022-10-31T06:24:24;100989.09;;;10.96;100.00
12664;BME280;6396;58.490;15.528;2022-10-31T06:26:51;101010.13;;;10.99;100.00
12664;BME280;6396;58.490;15.528;2022-10-31T06:29:18;100921.47;;;10.46;100.00
12664;BME280;6396;58.490;15.528;2022-10-31T06:31:44;101039.13;;;11.03;100.00
12664;BME280;6396;58.490;15.528;2022-10-31T06:34:11;101013.59;;;11.02;100.00
12664;BME280;6396;58.490;15.528;2022-10-31T06:36:38;101010.91;;;11.04;100.00
12664;BME280;6396;58.490;15.528;2022-10-31T06:39:06;100966.69;;;10.74;100.00
12664;BME280;6396;58.490;15.528;2022-10-31T06:41:33;101025.78;;;11.09;100.00
12664;BME280;6396;58.490;15.528;2022-10-31T06:44:25;100652.13;;;8.90;100.00
12664;BME280;6396;58.490;15.528;2022-10-31T06:46:52;100872.22;;;10.01;100.00
12664;BME280;6396;58.490;15.528;2022-10-31T06:49:19;101027.78;;;10.98;100.00
12664;BME280;6396;58.490;15.528;2022-10-31T06:51:47;100657.72;;;8.74;100.00
12664;BME280;6396;58.490;15.528;2022-10-31T06:54:15;101018.03;;;11.00;100.00
12664;BME280;6396;58.490;15.528;2022-10-31T06:56:42;101019.94;;;10.94;100.00
12664;BME280;6396;58.490;15.528;2022-10-31T06:59:11;100960.69;;;10.64;100.00
12664;BME280;6396;58.490;15.528;2022-10-31T07:01:38;100975.66;;;10.65;100.00
12664;BME280;6396;58.490;15.528;2022-10-31T07:04:05;101042.69;;;11.01;100.00
12664;BME280;6396;58.490;15.528;2022-10-31T07:06:32;100772.09;;;9.54;100.00
12664;BME280;6396;58.490;15.528;2022-10-31T07:08:59;100958.78;;;10.71;100.00
12664;BME280;6396;58.490;15.528;2022-10-31T07:11:27;101012.63;;;11.06;100.00
12664;BME280;6396;58.490;15.528;2022-10-31T07:13:53;100961.13;;;10.86;100.00
12664;BME280;6396;58.490;15.528;2022-10-31T07:16:20;100916.00;;;10.55;100.00
12664;BME280;6396;58.490;15.528;2022-10-31T07:18:47;101059.19;;;11.12;100.00
12664;BME280;6396;58.490;15.528;2022-10-31T07:21:14;100906.69;;;10.38;100.00
12664;BME280;6396;58.490;15.528;2022-10-31T07:23:41;100365.75;;;7.32;100.00
12664;BME280;6396;58.490;15.528;2022-10-31T07:26:09;100954.81;;;10.52;100.00
12664;BME280;6396;58.490;15.528;2022-10-31T07:28:38;101025.56;;;11.18;100.00
12664;BME280;6396;58.490;15.528;2022-10-31T07:31:05;100500.38;;;7.95;100.00
12664;BME280;6396;58.490;15.528;2022-10-31T07:33:33;100415.59;;;7.34;100.00
12664;BME280;6396;58.490;15.528;2022-10-31T07:36:14;100768.19;;;9.74;100.00
12664;BME280;6396;58.490;15.528;2022-10-31T07:38:41;100970.63;;;10.94;100.00
12664;BME280;6396;58.490;15.528;2022-10-31T07:41:07;101044.53;;;11.37;100.00
12664;BME280;6396;58.490;15.528;2022-10-31T07:43:35;101055.34;;;11.28;100.00
12664;BME280;6396;58.490;15.528;2022-10-31T07:46:03;100916.72;;;10.63;100.00
12664;BME280;6396;58.490;15.528;2022-10-31T07:48:30;100975.03;;;10.94;100.00
12664;BME280;6396;58.490;15.528;2022-10-31T07:50:57;100967.81;;;11.02;100.00
12664;BME280;6396;58.490;15.528;2022-10-31T07:53:23;101030.31;;;11.43;100.00
12664;BME280;6396;58.490;15.528;2022-10-31T07:55:50;100799.28;;;10.00;100.00
12664;BME280;6396;58.490;15.528;2022-10-31T07:58:17;101024.34;;;11.35;100.00
12664;BME280;6396;58.490;15.528;2022-10-31T08:00:45;101046.88;;;11.51;100.00
12664;BME280;6396;58.490;15.528;2022-10-31T08:03:15;100951.16;;;10.98;100.00
12664;BME280;6396;58.490;15.528;2022-10-31T08:05:42;100930.31;;;10.85;100.00
12664;BME280;6396;58.490;15.528;2022-10-31T08:08:12;100752.84;;;9.93;100.00
12664;BME280;6396;58.490;15.528;2022-10-31T08:10:38;101041.47;;;11.55;100.00
12664;BME280;6396;58.490;15.528;2022-10-31T08:13:06;101050.13;;;11.63;100.00
12664;BME280;6396;58.490;15.528;2022-10-31T08:15:33;101051.72;;;11.72;100.00
12664;BME280;6396;58.490;15.528;2022-10-31T08:18:03;101040.03;;;11.80;100.00
12664;BME280;6396;58.490;15.528;2022-10-31T08:20:32;101044.19;;;11.90;100.00
12664;BME280;6396;58.490;15.528;2022-10-31T08:23:00;101054.53;;;11.99;100.00
12664;BME280;6396;58.490;15.528;2022-10-31T08:25:28;101055.25;;;12.06;100.00
12664;BME280;6396;58.490;15.528;2022-10-31T08:27:56;101052.47;;;12.12;100.00
12664;BME280;6396;58.490;15.528;2022-10-31T08:30:25;100612.03;;;9.62;100.00
12664;BME280;6396;58.490;15.528;2022-10-31T08:33:00;101059.03;;;12.31;100.00
12664;BME280;6396;58.490;15.528;2022-10-31T08:35:27;101073.28;;;12.25;100.00
12664;BME280;6396;58.490;15.528;2022-10-31T08:37:56;101061.94;;;12.53;100.00
12664;BME280;6396;58.490;15.528;2022-10-31T08:40:24;101063.47;;;12.63;100.00
12664;BME280;6396;58.490;15.528;2022-10-31T08:43:02;101012.19;;;12.33;100.00
12664;BME280;6396;58.490;15.528;2022-10-31T08:45:30;101062.09;;;12.80;100.00
12664;BME280;6396;58.490;15.528;2022-10-31T08:47:58;101070.72;;;12.87;100.00
12664;BME280;6396;58.490;15.528;2022-10-31T08:50:26;100673.22;;;10.51;100.00
12664;BME280;6396;58.490;15.528;2022-10-31T08:52:52;101075.00;;;12.92;100.00
12664;BME280;6396;58.490;15.528;2022-10-31T08:55:21;101069.44;;;13.00;100.00
12664;BME280;6396;58.490;15.528;2022-10-31T08:57:47;101076.28;;;13.10;100.00
12664;BME280;6396;58.490;15.528;2022-10-31T09:00:14;101074.16;;;13.22;100.00
12664;BME280;6396;58.490;15.528;2022-10-31T09:02:41;100550.75;;;10.24;100.00
12664;BME280;6396;58.490;15.528;2022-10-31T09:05:08;101120.22;;;13.48;100.00
12664;BME280;6396;58.490;15.528;2022-10-31T09:07:35;101016.47;;;13.29;100.00
12664;BME280;6396;58.490;15.528;2022-10-31T09:10:02;100615.47;;;11.03;100.00
12664;BME280;6396;58.490;15.528;2022-10-31T09:12:30;101082.69;;;13.89;100.00
12664;BME280;6396;58.490;15.528;2022-10-31T09:14:57;101026.47;;;13.49;100.00
12664;BME280;6396;58.490;15.528;2022-10-31T09:17:26;101090.00;;;13.81;100.00
12664;BME280;6396;58.490;15.528;2022-10-31T09:19:54;101094.75;;;13.71;100.00
12664;BME280;6396;58.490;15.528;2022-10-31T09:22:21;101129.31;;;13.70;100.00
12664;BME280;6396;58.490;15.528;2022-10-31T09:24:47;100945.91;;;12.65;100.00
12664;BME280;6396;58.490;15.528;2022-10-31T09:27:14;100892.41;;;12.23;100.00
12664;BME280;6396;58.490;15.528;2022-10-31T09:29:42;101128.66;;;13.62;100.00
12664;BME280;6396;58.490;15.528;2022-10-31T09:32:09;101081.97;;;13.27;100.00
12664;BME280;6396;58.490;15.528;2022-10-31T09:34:36;101048.25;;;13.30;100.00
12664;BME280;6396;58.490;15.528;2022-10-31T09:37:03;101032.00;;;13.13;100.00
12664;BME280;6396;58.490;15.528;2022-10-31T09:39:30;100959.09;;;12.68;100.00
12664;BME280;6396;58.490;15.528;2022-10-31T09:42:38;100959.47;;;12.55;100.00
12664;BME280;6396;58.490;15.528;2022-10-31T09:45:14;101104.41;;;13.44;100.00
12664;BME280;6396;58.490;15.528;2022-10-31T09:47:52;101148.63;;;13.44;100.00
12664;BME280;6396;58.490;15.528;2022-10-31T09:50:24;101000.16;;;12.83;100.00
12664;BME280;6396;58.490;15.528;2022-10-31T09:52:58;100631.25;;;10.40;100.00
12664;BME280;6396;58.490;15.528;2022-10-31T09:55:33;100906.53;;;12.24;100.00
12664;BME280;6396;58.490;15.528;2022-10-31T09:58:02;100502.59;;;9.81;100.00
12664;BME280;6396;58.490;15.528;2022-10-31T10:00:31;101007.34;;;12.79;100.00
12664;BME280;6396;58.490;15.528;2022-10-31T10:03:07;101036.78;;;12.99;100.00
12664;BME280;6396;58.490;15.528;2022-10-31T10:05:41;101113.00;;;13.53;100.00
12664;BME280;6396;58.490;15.528;2022-10-31T10:08:15;101021.88;;;12.95;100.00
12664;BME280;6396;58.490;15.528;2022-10-31T10:10:49;100776.38;;;11.47;100.00
12664;BME280;6396;58.490;15.528;2022-10-31T10:16:23;101167.03;;;13.50;100.00
12664;BME280;6396;58.490;15.528;2022-10-31T10:19:05;101118.31;;;13.53;100.00
12664;BME280;6396;58.490;15.528;2022-10-31T10:21:45;101125.22;;;13.58;100.00
12664;BME280;6396;58.490;15.528;2022-10-31T10:24:35;100942.81;;;12.51;100.00
12664;BME280;6396;58.490;15.528;2022-10-31T10:27:14;101114.50;;;13.63;100.00
12664;BME280;6396;58.490;15.528;2022-10-31T10:29:50;101129.91;;;13.50;100.00
12664;BME280;6396;58.490;15.528;2022-10-31T10:32:24;101118.81;;;13.65;100.00
12664;BME280;6396;58.490;15.528;2022-10-31T10:35:02;101111.69;;;13.67;100.00
12664;BME280;6396;58.490;15.528;2022-10-31T10:37:50;100497.03;;;9.56;100.00
12664;BME280;6396;58.490;15.528;2022-10-31T10:40:51;100455.13;;;9.46;100.00
12664;BME280;6396;58.490;15.528;2022-10-31T10:43:33;101118.47;;;13.76;100.00
12664;BME280;6396;58.490;15.528;2022-10-31T10:46:12;100442.31;;;9.67;100.00
12664;BME280;6396;58.490;15.528;2022-10-31T10:49:09;101106.03;;;13.78;100.00
12664;BME280;6396;58.490;15.528;2022-10-31T10:51:44;100448.97;;;9.80;100.00
12664;BME280;6396;58.490;15.528;2022-10-31T10:54:39;100519.50;;;10.07;100.00
12664;BME280;6396;58.490;15.528;2022-10-31T10:57:18;100424.25;;;9.51;100.00
12664;BME280;6396;58.490;15.528;2022-10-31T10:59:48;100867.47;;;12.60;100.00
12664;BME280;6396;58.490;15.528;2022-10-31T11:02:17;100715.09;;;11.62;100.00
12664;BME280;6396;58.490;15.528;2022-10-31T11:04:52;101007.91;;;13.19;100.00
12664;BME280;6396;58.490;15.528;2022-10-31T11:07:20;100799.16;;;12.14;100.00
12664;BME280;6396;58.490;15.528;2022-10-31T11:09:47;101149.78;;;13.94;100.00
12664;BME280;6396;58.490;15.528;2022-10-31T11:12:21;101002.34;;;13.28;100.00
12664;BME280;6396;58.490;15.528;2022-10-31T11:14:51;100807.28;;;12.08;100.00
12664;BME280;6396;58.490;15.528;2022-10-31T11:17:26;101140.97;;;13.92;100.00
12664;BME280;6396;58.490;15.528;2022-10-31T11:20:25;101093.09;;;13.67;100.00
12664;BME280;6396;58.490;15.528;2022-10-31T11:23:02;101118.47;;;14.03;100.00
12664;BME280;6396;58.490;15.528;2022-10-31T11:25:29;101098.78;;;13.83;100.00
12664;BME280;6396;58.490;15.528;2022-10-31T11:28:00;101096.63;;;13.68;100.00
12664;BME280;6396;58.490;15.528;2022-10-31T11:30:27;100794.59;;;12.19;100.00
12664;BME280;6396;58.490;15.528;2022-10-31T11:32:55;101044.78;;;13.56;100.00
12664;BME280;6396;58.490;15.528;2022-10-31T11:35:24;101119.13;;;14.11;100.00
12664;BME280;6396;58.490;15.528;2022-10-31T11:37:53;101113.44;;;14.22;100.00
12664;BME280;6396;58.490;15.528;2022-10-31T11:40:22;101117.88;;;14.21;100.00
12664;BME280;6396;58.490;15.528;2022-10-31T11:42:51;101125.91;;;14.20;100.00
12664;BME280;6396;58.490;15.528;2022-10-31T11:45:29;101119.66;;;14.21;100.00
12664;BME280;6396;58.490;15.528;2022-10-31T11:47:57;101113.44;;;14.22;100.00
12664;BME280;6396;58.490;15.528;2022-10-31T11:50:33;101009.06;;;13.68;100.00
12664;BME280;6396;58.490;15.528;2022-10-31T11:53:01;101115.91;;;14.28;100.00
12664;BME280;6396;58.490;15.528;2022-10-31T11:55:33;101112.31;;;14.30;100.00
12664;BME280;6396;58.490;15.528;2022-10-31T11:58:01;101114.84;;;14.33;100.00
12664;BME280;6396;58.490;15.528;2022-10-31T12:00:29;100818.16;;;12.28;100.00
12664;BME280;6396;58.490;15.528;2022-10-31T12:03:23;100873.56;;;12.92;100.00
12664;BME280;6396;58.490;15.528;2022-10-31T12:05:58;101098.63;;;14.15;100.00
12664;BME280;6396;58.490;15.528;2022-10-31T12:08:30;101044.88;;;13.81;100.00
12664;BME280;6396;58.490;15.528;2022-10-31T12:11:01;101132.88;;;14.22;100.00
12664;BME280;6396;58.490;15.528;2022-10-31T12:13:33;101053.44;;;13.90;100.00
12664;BME280;6396;58.490;15.528;2022-10-31T12:16:08;101113.31;;;14.26;100.00
12664;BME280;6396;58.490;15.528;2022-10-31T12:18:46;101058.75;;;13.90;100.00
12664;BME280;6396;58.490;15.528;2022-10-31T12:21:27;100998.63;;;13.62;100.00
12664;BME280;6396;58.490;15.528;2022-10-31T12:24:08;101056.84;;;13.94;100.00
12664;BME280;6396;58.490;15.528;2022-10-31T12:26:44;101056.63;;;14.00;100.00
12664;BME280;6396;58.490;15.528;2022-10-31T12:29:25;101063.69;;;13.75;100.00
12664;BME280;6396;58.490;15.528;2022-10-31T12:32:05;100983.53;;;13.64;100.00
12664;BME280;6396;58.490;15.528;2022-10-31T12:34:49;100979.50;;;13.51;100.00
12664;BME280;6396;58.490;15.528;2022-10-31T12:37:32;101107.66;;;14.37;100.00
12664;BME280;6396;58.490;15.528;2022-10-31T12:40:15;101038.03;;;14.00;100.00
12664;BME280;6396;58.490;15.528;2022-10-31T12:43:00;100779.00;;;12.10;100.00
12664;BME280;6396;58.490;15.528;2022-10-31T12:45:37;101158.03;;;14.40;100.00
12664;BME280;6396;58.490;15.528;2022-10-31T12:48:27;101100.50;;;14.39;100.00
12664;BME280;6396;58.490;15.528;2022-10-31T12:51:03;101031.88;;;13.99;100.00
12664;BME280;6396;58.490;15.528;2022-10-31T12:53:46;101044.81;;;14.10;100.00
12664;BME280;6396;58.490;15.528;2022-10-31T12:56:24;101007.66;;;13.82;100.00
12664;BME280;6396;58.490;15.528;2022-10-31T12:59:00;100659.00;;;11.82;100.00
12664;BME280;6396;58.490;15.528;2022-10-31T13:01:33;101103.88;;;14.44;100.00
12664;BME280;6396;58.490;15.528;2022-10-31T13:04:03;101108.16;;;14.48;100.00
12664;BME280;6396;58.490;15.528;2022-10-31T13:06:35;101023.81;;;13.76;100.00
12664;BME280;6396;58.490;15.528;2022-10-31T13:09:06;101023.16;;;13.96;100.00